sensor_id;sensor_type;location;lat;lon;timestamp;P1;durP1;ratioP1;P2;durP2;ratioP2
72864;SDS011;61000;48.120;11.548;2022-10-31T00:02:04;13.57;;;8.07;;
72864;SDS011;61000;48.120;11.548;2022-10-31T00:04:31;14.30;;;7.63;;
72864;SDS011;61000;48.120;11.548;2022-10-31T00:06:58;14.75;;;7.47;;
72864;SDS011;61000;48.120;11.548;2022-10-31T00:09:24;11.15;;;7.00;;
72864;SDS011;61000;48.120;11.548;2022-10-31T00:11:51;16.95;;;6.85;;
72864;SDS011;61000;48.120;11.548;2022-10-31T00:14:19;19.05;;;7.28;;
72864;SDS011;61000;48.120;11.548;2022-10-31T00:16:46;15.32;;;6.72;;
72864;SDS011;61000;48.120;11.548;2022-10-31T00:19:13;14.57;;;6.50;;
72864;SDS011;61000;48.120;11.548;2022-10-31T00:21:40;11.05;;;6.55;;
72864;SDS011;61000;48.120;11.548;2022-10-31T00:24:07;12.90;;;6.93;;
72864;SDS011;61000;48.120;11.548;2022-10-31T00:26:34;12.60;;;6.90;;
72864;SDS011;61000;48.120;11.548;2022-10-31T00:29:01;14.65;;;7.18;;
72864;SDS011;61000;48.120;11.548;2022-10-31T00:31:30;13.95;;;6.75;;
72864;SDS011;61000;48.120;11.548;2022-10-31T00:33:56;13.65;;;6.55;;
72864;SDS011;61000;48.120;11.548;2022-10-31T00:36:25;14.82;;;6.15;;
72864;SDS011;61000;48.120;11.548;2022-10-31T00:38:52;11.38;;;6.55;;
72864;SDS011;61000;48.120;11.548;2022-10-31T00:41:20;12.32;;;6.53;;
72864;SDS011;61000;48.120;11.548;2022-10-31T00:43:47;14.30;;;6.82;;
72864;SDS011;61000;48.120;11.548;2022-10-31T00:46:14;14.32;;;6.82;;
72864;SDS011;61000;48.120;11.548;2022-10-31T00:48:42;11.70;;;6.47;;
72864;SDS011;61000;48.120;11.548;2022-10-31T00:51:09;12.73;;;7.13;;
72864;SDS011;61000;48.120;11.548;2022-10-31T00:53:38;13.90;;;7.35;;
72864;SDS011;61000;48.120;11.548;2022-10-31T00:56:05;13.55;;;6.50;;
72864;SDS011;61000;48.120;11.548;2022-10-31T00:58:33;19.30;;;7.43;;
72864;SDS011;61000;48.120;11.548;2022-10-31T01:01:00;14.65;;;7.90;;
72864;SDS011;61000;48.120;11.548;2022-10-31T01:03:29;12.52;;;7.28;;
72864;SDS011;61000;48.120;11.548;2022-10-31T01:05:59;17.88;;;7.75;;
72864;SDS011;61000;48.120;11.548;2022-10-31T01:08:28;9.45;;;6.57;;
72864;SDS011;61000;48.120;11.548;2022-10-31T01:10:59;12.32;;;7.50;;
72864;SDS011;61000;48.120;11.548;2022-10-31T01:13:27;16.52;;;6.90;;
72864;SDS011;61000;48.120;11.548;2022-10-31T01:15:54;15.05;;;7.43;;
72864;SDS011;61000;48.120;11.548;2022-10-31T01:18:22;14.00;;;7.28;;
72864;SDS011;61000;48.120;11.548;2022-10-31T01:20:56;9.98;;;6.32;;
72864;SDS011;61000;48.120;11.548;2022-10-31T01:23:25;10.00;;;7.05;;
72864;SDS011;61000;48.120;11.548;2022-10-31T01:25:59;12.98;;;7.07;;
72864;SDS011;61000;48.120;11.548;2022-10-31T01:28:31;14.75;;;7.60;;
72864;SDS011;61000;48.120;11.548;2022-10-31T01:31:00;14.73;;;6.88;;
72864;SDS011;61000;48.120;11.548;2022-10-31T01:33:27;12.70;;;6.90;;
72864;SDS011;61000;48.120;11.548;2022-10-31T01:35:54;16.02;;;6.68;;
72864;SDS011;61000;48.120;11.548;2022-10-31T01:38:23;15.65;;;9.02;;
72864;SDS011;61000;48.120;11.548;2022-10-31T01:40:50;13.57;;;6.85;;
72864;SDS011;61000;48.120;11.548;2022-10-31T01:43:17;12.15;;;6.53;;
72864;SDS011;61000;48.120;11.548;2022-10-31T01:45:44;11.07;;;5.50;;
72864;SDS011;61000;48.120;11.548;2022-10-31T01:48:17;14.45;;;6.00;;
72864;SDS011;61000;48.120;11.548;2022-10-31T01:50:47;11.43;;;5.90;;
72864;SDS011;61000;48.120;11.548;2022-10-31T01:53:16;12.55;;;6.10;;
72864;SDS011;61000;48.120;11.548;2022-10-31T01:55:45;12.85;;;6.15;;
72864;SDS011;61000;48.120;11.548;2022-10-31T01:58:14;10.07;;;7.20;;
72864;SDS011;61000;48.120;11.548;2022-10-31T02:00:45;11.30;;;6.00;;
72864;SDS011;61000;48.120;11.548;2022-10-31T02:03:15;11.05;;;5.93;;
72864;SDS011;61000;48.120;11.548;2022-10-31T02:05:43;15.15;;;7.60;;
72864;SDS011;61000;48.120;11.548;2022-10-31T02:08:11;9.43;;;5.60;;
72864;SDS011;61000;48.120;11.548;2022-10-31T02:10:42;8.02;;;5.32;;
72864;SDS011;61000;48.120;11.548;2022-10-31T02:13:11;7.13;;;4.70;;
72864;SDS011;61000;48.120;11.548;2022-10-31T02:15:45;14.60;;;6.68;;
72864;SDS011;61000;48.120;11.548;2022-10-31T02:18:16;10.93;;;5.28;;
72864;SDS011;61000;48.120;11.548;2022-10-31T02:20:48;10.05;;;6.03;;
72864;SDS011;61000;48.120;11.548;2022-10-31T02:26:36;11.98;;;5.95;;
72864;SDS011;61000;48.120;11.548;2022-10-31T02:32:14;9.70;;;5.80;;
72864;SDS011;61000;48.120;11.548;2022-10-31T02:34:48;15.80;;;6.40;;
72864;SDS011;61000;48.120;11.548;2022-10-31T02:37:25;14.48;;;5.53;;
72864;SDS011;61000;48.120;11.548;2022-10-31T02:40:04;17.08;;;7.07;;
72864;SDS011;61000;48.120;11.548;2022-10-31T02:43:02;13.13;;;6.25;;
72864;SDS011;61000;48.120;11.548;2022-10-31T02:45:33;11.95;;;5.32;;
72864;SDS011;61000;48.120;11.548;2022-10-31T02:48:08;12.32;;;5.95;;
72864;SDS011;61000;48.120;11.548;2022-10-31T02:50:40;15.48;;;6.40;;
72864;SDS011;61000;48.120;11.548;2022-10-31T02:53:10;19.02;;;6.38;;
72864;SDS011;61000;48.120;11.548;2022-10-31T02:55:48;15.23;;;5.82;;
72864;SDS011;61000;48.120;11.548;2022-10-31T02:58:26;15.73;;;6.50;;
72864;SDS011;61000;48.120;11.548;2022-10-31T03:01:03;10.15;;;6.32;;
72864;SDS011;61000;48.120;11.548;2022-10-31T03:03:46;12.10;;;5.40;;
72864;SDS011;61000;48.120;11.548;2022-10-31T03:06:23;10.23;;;5.50;;
72864;SDS011;61000;48.120;11.548;2022-10-31T03:08:55;12.43;;;6.07;;
72864;SDS011;61000;48.120;11.548;2022-10-31T03:11:31;13.95;;;5.88;;
72864;SDS011;61000;48.120;11.548;2022-10-31T03:14:04;9.55;;;5.60;;
72864;SDS011;61000;48.120;11.548;2022-10-31T03:16:39;13.15;;;6.68;;
72864;SDS011;61000;48.120;11.548;2022-10-31T03:19:13;11.90;;;6.28;;
72864;SDS011;61000;48.120;11.548;2022-10-31T03:21:45;14.52;;;7.25;;
72864;SDS011;61000;48.120;11.548;2022-10-31T03:24:15;12.13;;;5.65;;
72864;SDS011;61000;48.120;11.548;2022-10-31T03:26:43;11.82;;;6.63;;
72864;SDS011;61000;48.120;11.548;2022-10-31T03:29:13;7.70;;;5.25;;
72864;SDS011;61000;48.120;11.548;2022-10-31T03:31:44;15.07;;;6.68;;
72864;SDS011;61000;48.120;11.548;2022-10-31T03:34:15;11.70;;;5.68;;
72864;SDS011;61000;48.120;11.548;2022-10-31T03:36:44;14.73;;;6.03;;
72864;SDS011;61000;48.120;11.548;2022-10-31T03:39:15;10.55;;;5.88;;
72864;SDS011;61000;48.120;11.548;2022-10-31T03:41:45;15.05;;;5.90;;
72864;SDS011;61000;48.120;11.548;2022-10-31T03:44:18;11.13;;;5.70;;
72864;SDS011;61000;48.120;11.548;2022-10-31T03:46:56;11.20;;;4.88;;
72864;SDS011;61000;48.120;11.548;2022-10-31T03:49:24;9.88;;;5.47;;
72864;SDS011;61000;48.120;11.548;2022-10-31T03:51:54;7.05;;;5.53;;
72864;SDS011;61000;48.120;11.548;2022-10-31T03:54:25;12.73;;;5.97;;
72864;SDS011;61000;48.120;11.548;2022-10-31T03:56:58;11.10;;;6.25;;
72864;SDS011;61000;48.120;11.548;2022-10-31T03:59:32;9.63;;;5.25;;
72864;SDS011;61000;48.120;11.548;2022-10-31T04:02:02;13.43;;;5.18;;
72864;SDS011;61000;48.120;11.548;2022-10-31T04:04:34;10.02;;;5.25;;
72864;SDS011;61000;48.120;11.548;2022-10-31T04:07:04;9.32;;;5.20;;
72864;SDS011;61000;48.120;11.548;2022-10-31T04:09:35;10.07;;;5.43;;
72864;SDS011;61000;48.120;11.548;2022-10-31T04:12:06;12.18;;;6.07;;
72864;SDS011;61000;48.120;11.548;2022-10-31T04:14:38;12.88;;;5.55;;
72864;SDS011;61000;48.120;11.548;2022-10-31T04:17:07;10.05;;;5.32;;
72864;SDS011;61000;48.120;11.548;2022-10-31T04:19:42;10.57;;;5.78;;
72864;SDS011;61000;48.120;11.548;2022-10-31T04:22:08;10.00;;;5.50;;
72864;SDS011;61000;48.120;11.548;2022-10-31T04:24:36;11.00;;;5.70;;
72864;SDS011;61000;48.120;11.548;2022-10-31T04:27:07;10.20;;;5.00;;
72864;SDS011;61000;48.120;11.548;2022-10-31T04:29:34;9.65;;;6.25;;
72864;SDS011;61000;48.120;11.548;2022-10-31T04:32:01;12.82;;;5.60;;
72864;SDS011;61000;48.120;11.548;2022-10-31T04:34:28;9.65;;;5.47;;
72864;SDS011;61000;48.120;11.548;2022-10-31T04:36:56;13.40;;;5.38;;
72864;SDS011;61000;48.120;11.548;2022-10-31T04:39:23;9.35;;;5.20;;
72864;SDS011;61000;48.120;11.548;2022-10-31T04:42:10;13.55;;;5.78;;
72864;SDS011;61000;48.120;11.548;2022-10-31T04:44:37;10.23;;;5.30;;
72864;SDS011;61000;48.120;11.548;2022-10-31T04:47:04;8.95;;;5.15;;
72864;SDS011;61000;48.120;11.548;2022-10-31T04:49:31;11.50;;;4.97;;
72864;SDS011;61000;48.120;11.548;2022-10-31T04:51:59;16.40;;;5.93;;
72864;SDS011;61000;48.120;11.548;2022-10-31T04:54:27;9.73;;;5.88;;
72864;SDS011;61000;48.120;11.548;2022-10-31T04:57:14;10.35;;;5.75;;
72864;SDS011;61000;48.120;11.548;2022-10-31T04:59:44;13.20;;;5.90;;
72864;SDS011;61000;48.120;11.548;2022-10-31T05:02:11;14.05;;;7.15;;
72864;SDS011;61000;48.120;11.548;2022-10-31T05:04:44;8.38;;;5.15;;
72864;SDS011;61000;48.120;11.548;2022-10-31T05:07:12;9.85;;;6.03;;
72864;SDS011;61000;48.120;11.548;2022-10-31T05:09:39;13.93;;;6.30;;
72864;SDS011;61000;48.120;11.548;2022-10-31T05:12:06;10.80;;;5.43;;
72864;SDS011;61000;48.120;11.548;2022-10-31T05:14:51;13.20;;;5.93;;
72864;SDS011;61000;48.120;11.548;2022-10-31T05:17:38;11.90;;;6.18;;
72864;SDS011;61000;48.120;11.548;2022-10-31T05:20:24;9.13;;;5.60;;
72864;SDS011;61000;48.120;11.548;2022-10-31T05:23:13;9.82;;;5.15;;
72864;SDS011;61000;48.120;11.548;2022-10-31T05:25:41;11.32;;;5.47;;
72864;SDS011;61000;48.120;11.548;2022-10-31T05:28:08;9.80;;;5.60;;
72864;SDS011;61000;48.120;11.548;2022-10-31T05:30:34;8.95;;;5.53;;
72864;SDS011;61000;48.120;11.548;2022-10-31T05:33:03;14.18;;;5.57;;
72864;SDS011;61000;48.120;11.548;2022-10-31T05:35:49;10.50;;;5.70;;
72864;SDS011;61000;48.120;11.548;2022-10-31T05:38:33;13.05;;;5.45;;
72864;SDS011;61000;48.120;11.548;2022-10-31T05:41:20;9.27;;;5.05;;
72864;SDS011;61000;48.120;11.548;2022-10-31T05:43:49;8.45;;;5.65;;
72864;SDS011;61000;48.120;11.548;2022-10-31T05:46:20;7.25;;;4.53;;
72864;SDS011;61000;48.120;11.548;2022-10-31T05:49:05;11.15;;;5.60;;
72864;SDS011;61000;48.120;11.548;2022-10-31T05:51:51;12.55;;;5.45;;
72864;SDS011;61000;48.120;11.548;2022-10-31T05:54:23;8.52;;;5.13;;
72864;SDS011;61000;48.120;11.548;2022-10-31T05:56:50;13.48;;;5.38;;
72864;SDS011;61000;48.120;11.548;2022-10-31T05:59:17;8.68;;;5.25;;
72864;SDS011;61000;48.120;11.548;2022-10-31T06:01:44;7.38;;;5.07;;
72864;SDS011;61000;48.120;11.548;2022-10-31T06:04:30;11.18;;;5.55;;
72864;SDS011;61000;48.120;11.548;2022-10-31T06:06:57;11.70;;;5.50;;
72864;SDS011;61000;48.120;11.548;2022-10-31T06:09:26;10.15;;;5.72;;
72864;SDS011;61000;48.120;11.548;2022-10-31T06:11:54;9.60;;;5.38;;
72864;SDS011;61000;48.120;11.548;2022-10-31T06:14:43;9.93;;;5.00;;
72864;SDS011;61000;48.120;11.548;2022-10-31T06:17:10;8.80;;;4.80;;
72864;SDS011;61000;48.120;11.548;2022-10-31T06:19:46;9.32;;;5.03;;
72864;SDS011;61000;48.120;11.548;2022-10-31T06:22:19;7.85;;;4.90;;
72864;SDS011;61000;48.120;11.548;2022-10-31T06:24:47;8.80;;;5.53;;
72864;SDS011;61000;48.120;11.548;2022-10-31T06:27:40;13.48;;;5.53;;
72864;SDS011;61000;48.120;11.548;2022-10-31T06:30:12;9.48;;;4.93;;
72864;SDS011;61000;48.120;11.548;2022-10-31T06:32:40;9.57;;;5.57;;
72864;SDS011;61000;48.120;11.548;2022-10-31T06:35:08;12.88;;;6.32;;
72864;SDS011;61000;48.120;11.548;2022-10-31T06:37:36;9.43;;;5.60;;
72864;SDS011;61000;48.120;11.548;2022-10-31T06:40:17;9.77;;;5.13;;
72864;SDS011;61000;48.120;11.548;2022-10-31T06:43:04;9.57;;;5.75;;
72864;SDS011;61000;48.120;11.548;2022-10-31T06:45:31;7.85;;;5.15;;
72864;SDS011;61000;48.120;11.548;2022-10-31T06:48:16;13.93;;;5.25;;
72864;SDS011;61000;48.120;11.548;2022-10-31T06:51:13;10.48;;;4.90;;
72864;SDS011;61000;48.120;11.548;2022-10-31T06:53:40;12.70;;;5.50;;
72864;SDS011;61000;48.120;11.548;2022-10-31T06:56:11;10.35;;;4.90;;
72864;SDS011;61000;48.120;11.548;2022-10-31T06:58:43;9.32;;;4.68;;
72864;SDS011;61000;48.120;11.548;2022-10-31T07:01:12;11.90;;;5.60;;
72864;SDS011;61000;48.120;11.548;2022-10-31T07:03:38;13.05;;;5.43;;
72864;SDS011;61000;48.120;11.548;2022-10-31T07:06:06;8.18;;;4.93;;
72864;SDS011;61000;48.120;11.548;2022-10-31T07:08:33;10.75;;;4.72;;
72864;SDS011;61000;48.120;11.548;2022-10-31T07:11:00;14.05;;;5.28;;
72864;SDS011;61000;48.120;11.548;2022-10-31T07:13:30;10.65;;;5.57;;
72864;SDS011;61000;48.120;11.548;2022-10-31T07:16:04;14.23;;;5.40;;
72864;SDS011;61000;48.120;11.548;2022-10-31T07:18:34;7.68;;;4.60;;
72864;SDS011;61000;48.120;11.548;2022-10-31T07:21:01;8.70;;;4.85;;
72864;SDS011;61000;48.120;11.548;2022-10-31T07:23:28;12.57;;;5.03;;
72864;SDS011;61000;48.120;11.548;2022-10-31T07:26:15;6.40;;;4.50;;
72864;SDS011;61000;48.120;11.548;2022-10-31T07:28:46;11.15;;;4.90;;
72864;SDS011;61000;48.120;11.548;2022-10-31T07:31:15;7.82;;;4.53;;
72864;SDS011;61000;48.120;11.548;2022-10-31T07:33:42;10.77;;;4.78;;
72864;SDS011;61000;48.120;11.548;2022-10-31T07:36:27;13.77;;;5.13;;
72864;SDS011;61000;48.120;11.548;2022-10-31T07:39:00;10.00;;;4.63;;
72864;SDS011;61000;48.120;11.548;2022-10-31T07:41:29;10.38;;;5.50;;
72864;SDS011;61000;48.120;11.548;2022-10-31T07:43:57;12.35;;;4.22;;
72864;SDS011;61000;48.120;11.548;2022-10-31T07:46:43;7.78;;;4.13;;
72864;SDS011;61000;48.120;11.548;2022-10-31T07:49:29;9.45;;;4.70;;
72864;SDS011;61000;48.120;11.548;2022-10-31T07:52:16;11.10;;;4.65;;
72864;SDS011;61000;48.120;11.548;2022-10-31T07:54:48;7.80;;;4.15;;
72864;SDS011;61000;48.120;11.548;2022-10-31T07:57:21;9.90;;;5.07;;
72864;SDS011;61000;48.120;11.548;2022-10-31T07:59:49;7.43;;;5.20;;
72864;SDS011;61000;48.120;11.548;2022-10-31T08:02:17;6.85;;;3.67;;
72864;SDS011;61000;48.120;11.548;2022-10-31T08:04:47;11.05;;;5.65;;
72864;SDS011;61000;48.120;11.548;2022-10-31T08:07:35;8.98;;;4.90;;
72864;SDS011;61000;48.120;11.548;2022-10-31T08:10:05;13.10;;;4.13;;
72864;SDS011;61000;48.120;11.548;2022-10-31T08:12:33;9.30;;;4.25;;
72864;SDS011;61000;48.120;11.548;2022-10-31T08:15:04;17.02;;;5.28;;
72864;SDS011;61000;48.120;11.548;2022-10-31T08:17:34;9.60;;;4.55;;
72864;SDS011;61000;48.120;11.548;2022-10-31T08:20:01;12.50;;;4.90;;
72864;SDS011;61000;48.120;11.548;2022-10-31T08:22:33;13.95;;;4.85;;
72864;SDS011;61000;48.120;11.548;2022-10-31T08:25:00;11.10;;;4.30;;
72864;SDS011;61000;48.120;11.548;2022-10-31T08:27:27;7.05;;;4.07;;
72864;SDS011;61000;48.120;11.548;2022-10-31T08:29:57;9.00;;;4.45;;
72864;SDS011;61000;48.120;11.548;2022-10-31T08:32:26;12.00;;;4.35;;
72864;SDS011;61000;48.120;11.548;2022-10-31T08:35:11;9.52;;;4.47;;
72864;SDS011;61000;48.120;11.548;2022-10-31T08:37:57;9.80;;;3.92;;
72864;SDS011;61000;48.120;11.548;2022-10-31T08:40:26;7.97;;;4.65;;
72864;SDS011;61000;48.120;11.548;2022-10-31T08:42:57;8.68;;;4.82;;
72864;SDS011;61000;48.120;11.548;2022-10-31T08:45:25;13.55;;;6.57;;
72864;SDS011;61000;48.120;11.548;2022-10-31T08:47:57;12.30;;;5.20;;
72864;SDS011;61000;48.120;11.548;2022-10-31T08:50:25;15.32;;;6.32;;
72864;SDS011;61000;48.120;11.548;2022-10-31T08:52:58;9.10;;;5.60;;
72864;SDS011;61000;48.120;11.548;2022-10-31T08:55:26;12.52;;;5.72;;
72864;SDS011;61000;48.120;11.548;2022-10-31T08:58:01;13.77;;;6.90;;
72864;SDS011;61000;48.120;11.548;2022-10-31T09:00:40;13.07;;;6.18;;
72864;SDS011;61000;48.120;11.548;2022-10-31T09:03:16;12.35;;;5.85;;
72864;SDS011;61000;48.120;11.548;2022-10-31T09:05:44;12.00;;;6.07;;
72864;SDS011;61000;48.120;11.548;2022-10-31T09:08:12;15.80;;;5.93;;
72864;SDS011;61000;48.120;11.548;2022-10-31T09:10:39;10.98;;;5.50;;
72864;SDS011;61000;48.120;11.548;2022-10-31T09:13:08;9.98;;;6.47;;
72864;SDS011;61000;48.120;11.548;2022-10-31T09:15:55;8.65;;;5.80;;
72864;SDS011;61000;48.120;11.548;2022-10-31T09:18:26;10.98;;;5.60;;
72864;SDS011;61000;48.120;11.548;2022-10-31T09:20:57;8.98;;;5.68;;
72864;SDS011;61000;48.120;11.548;2022-10-31T09:23:26;17.90;;;6.80;;
72864;SDS011;61000;48.120;11.548;2022-10-31T09:25:53;8.43;;;5.32;;
72864;SDS011;61000;48.120;11.548;2022-10-31T09:28:29;10.65;;;5.45;;
72864;SDS011;61000;48.120;11.548;2022-10-31T09:31:03;15.07;;;7.63;;
72864;SDS011;61000;48.120;11.548;2022-10-31T09:33:50;13.20;;;5.40;;
72864;SDS011;61000;48.120;11.548;2022-10-31T09:36:34;12.95;;;4.63;;
72864;SDS011;61000;48.120;11.548;2022-10-31T09:39:02;10.80;;;5.13;;
72864;SDS011;61000;48.120;11.548;2022-10-31T09:41:35;10.10;;;5.10;;
72864;SDS011;61000;48.120;11.548;2022-10-31T09:44:15;10.40;;;5.22;;
72864;SDS011;61000;48.120;11.548;2022-10-31T09:46:51;11.25;;;5.32;;
72864;SDS011;61000;48.120;11.548;2022-10-31T09:52:23;16.00;;;6.18;;
72864;SDS011;61000;48.120;11.548;2022-10-31T09:54:58;15.82;;;5.00;;
72864;SDS011;61000;48.120;11.548;2022-10-31T09:57:33;10.40;;;4.90;;
72864;SDS011;61000;48.120;11.548;2022-10-31T10:00:03;9.60;;;5.00;;
72864;SDS011;61000;48.120;11.548;2022-10-31T10:02:39;9.15;;;3.97;;
72864;SDS011;61000;48.120;11.548;2022-10-31T10:05:12;8.48;;;4.50;;
72864;SDS011;61000;48.120;11.548;2022-10-31T10:07:44;9.18;;;3.60;;
72864;SDS011;61000;48.120;11.548;2022-10-31T10:10:40;10.35;;;3.72;;
72864;SDS011;61000;48.120;11.548;2022-10-31T10:13:38;8.43;;;3.85;;
72864;SDS011;61000;48.120;11.548;2022-10-31T10:16:14;13.02;;;3.50;;
72864;SDS011;61000;48.120;11.548;2022-10-31T10:18:52;9.05;;;3.65;;
72864;SDS011;61000;48.120;11.548;2022-10-31T10:21:33;8.65;;;3.80;;
72864;SDS011;61000;48.120;11.548;2022-10-31T10:24:25;8.82;;;4.60;;
72864;SDS011;61000;48.120;11.548;2022-10-31T10:27:04;9.48;;;4.00;;
72864;SDS011;61000;48.120;11.548;2022-10-31T10:29:39;8.02;;;3.42;;
72864;SDS011;61000;48.120;11.548;2022-10-31T10:32:13;10.52;;;3.80;;
72864;SDS011;61000;48.120;11.548;2022-10-31T10:34:47;10.80;;;3.33;;
72864;SDS011;61000;48.120;11.548;2022-10-31T10:37:22;12.88;;;4.68;;
72864;SDS011;61000;48.120;11.548;2022-10-31T10:39:53;11.25;;;3.63;;
72864;SDS011;61000;48.120;11.548;2022-10-31T10:42:23;8.48;;;4.00;;
72864;SDS011;61000;48.120;11.548;2022-10-31T10:45:14;9.88;;;3.83;;
72864;SDS011;61000;48.120;11.548;2022-10-31T10:48:04;10.88;;;3.33;;
72864;SDS011;61000;48.120;11.548;2022-10-31T10:50:39;10.18;;;3.58;;
72864;SDS011;61000;48.120;11.548;2022-10-31T10:53:15;8.23;;;3.40;;
72864;SDS011;61000;48.120;11.548;2022-10-31T10:55:59;9.85;;;2.78;;
72864;SDS011;61000;48.120;11.548;2022-10-31T10:58:30;8.55;;;3.60;;
72864;SDS011;61000;48.120;11.548;2022-10-31T11:00:57;5.97;;;2.85;;
72864;SDS011;61000;48.120;11.548;2022-10-31T11:03:24;9.65;;;2.97;;
72864;SDS011;61000;48.120;11.548;2022-10-31T11:05:51;5.90;;;3.47;;
72864;SDS011;61000;48.120;11.548;2022-10-31T11:08:27;6.45;;;3.20;;
72864;SDS011;61000;48.120;11.548;2022-10-31T11:10:56;10.60;;;3.25;;
72864;SDS011;61000;48.120;11.548;2022-10-31T11:13:25;7.75;;;3.33;;
72864;SDS011;61000;48.120;11.548;2022-10-31T11:15:57;9.18;;;3.05;;
72864;SDS011;61000;48.120;11.548;2022-10-31T11:18:26;8.57;;;3.22;;
72864;SDS011;61000;48.120;11.548;2022-10-31T11:20:56;10.82;;;3.53;;
72864;SDS011;61000;48.120;11.548;2022-10-31T11:23:25;14.50;;;3.90;;
72864;SDS011;61000;48.120;11.548;2022-10-31T11:25:56;7.65;;;2.95;;
72864;SDS011;61000;48.120;11.548;2022-10-31T11:28:25;7.68;;;3.40;;
72864;SDS011;61000;48.120;11.548;2022-10-31T11:30:54;9.52;;;3.75;;
72864;SDS011;61000;48.120;11.548;2022-10-31T11:33:25;9.00;;;3.20;;
72864;SDS011;61000;48.120;11.548;2022-10-31T11:35:55;12.00;;;3.60;;
72864;SDS011;61000;48.120;11.548;2022-10-31T11:38:23;11.85;;;3.60;;
72864;SDS011;61000;48.120;11.548;2022-10-31T11:41:03;5.75;;;3.10;;
72864;SDS011;61000;48.120;11.548;2022-10-31T11:43:38;11.07;;;3.50;;
72864;SDS011;61000;48.120;11.548;2022-10-31T11:46:11;9.23;;;3.28;;
72864;SDS011;61000;48.120;11.548;2022-10-31T11:48:46;9.10;;;3.50;;
72864;SDS011;61000;48.120;11.548;2022-10-31T11:51:19;8.10;;;3.13;;
72864;SDS011;61000;48.120;11.548;2022-10-31T11:53:49;9.73;;;3.17;;
72864;SDS011;61000;48.120;11.548;2022-10-31T11:56:19;7.85;;;3.00;;
72864;SDS011;61000;48.120;11.548;2022-10-31T11:58:54;10.75;;;3.38;;
72864;SDS011;61000;48.120;11.548;2022-10-31T12:01:23;8.38;;;3.38;;
72864;SDS011;61000;48.120;11.548;2022-10-31T12:03:54;11.50;;;3.05;;
72864;SDS011;61000;48.120;11.548;2022-10-31T12:06:27;9.00;;;3.47;;
72864;SDS011;61000;48.120;11.548;2022-10-31T12:08:57;13.88;;;3.45;;
72864;SDS011;61000;48.120;11.548;2022-10-31T12:11:33;11.23;;;3.30;;
72864;SDS011;61000;48.120;11.548;2022-10-31T12:14:15;7.03;;;3.40;;
72864;SDS011;61000;48.120;11.548;2022-10-31T12:16:49;7.82;;;3.13;;
72864;SDS011;61000;48.120;11.548;2022-10-31T12:19:24;7.95;;;3.70;;
72864;SDS011;61000;48.120;11.548;2022-10-31T12:22:03;11.57;;;3.47;;
72864;SDS011;61000;48.120;11.548;2022-10-31T12:27:50;14.02;;;5.63;;
72864;SDS011;61000;48.120;11.548;2022-10-31T12:30:31;7.90;;;3.53;;
72864;SDS011;61000;48.120;11.548;2022-10-31T12:36:18;8.90;;;3.60;;
72864;SDS011;61000;48.120;11.548;2022-10-31T12:39:02;9.90;;;4.32;;
72864;SDS011;61000;48.120;11.548;2022-10-31T12:41:45;8.00;;;3.58;;
72864;SDS011;61000;48.120;11.548;2022-10-31T12:44:34;12.98;;;3.60;;
72864;SDS011;61000;48.120;11.548;2022-10-31T12:47:25;12.02;;;3.55;;
72864;SDS011;61000;48.120;11.548;2022-10-31T12:50:13;9.50;;;3.42;;
72864;SDS011;61000;48.120;11.548;2022-10-31T12:52:52;7.63;;;4.00;;
72864;SDS011;61000;48.120;11.548;2022-10-31T12:58:19;6.72;;;2.90;;
72864;SDS011;61000;48.120;11.548;2022-10-31T13:00:51;10.20;;;3.53;;
72864;SDS011;61000;48.120;11.548;2022-10-31T13:03:28;8.45;;;3.50;;
72864;SDS011;61000;48.120;11.548;2022-10-31T13:06:02;10.05;;;3.50;;
72864;SDS011;61000;48.120;11.548;2022-10-31T13:08:35;5.40;;;2.95;;
72864;SDS011;61000;48.120;11.548;2022-10-31T13:11:07;6.55;;;3.42;;
72864;SDS011;61000;48.120;11.548;2022-10-31T13:13:37;10.60;;;3.80;;
72864;SDS011;61000;48.120;11.548;2022-10-31T13:16:10;9.20;;;3.55;;
72864;SDS011;61000;48.120;11.548;2022-10-31T13:18:42;8.30;;;3.75;;
72864;SDS011;61000;48.120;11.548;2022-10-31T13:21:13;7.50;;;3.70;;
72864;SDS011;61000;48.120;11.548;2022-10-31T13:23:44;11.18;;;4.10;;
72864;SDS011;61000;48.120;11.548;2022-10-31T13:26:15;10.13;;;3.90;;
72864;SDS011;61000;48.120;11.548;2022-10-31T13:29:00;9.18;;;4.28;;
72864;SDS011;61000;48.120;11.548;2022-10-31T13:31:40;7.43;;;4.07;;
72864;SDS011;61000;48.120;11.548;2022-10-31T13:34:10;6.28;;;3.90;;
72864;SDS011;61000;48.120;11.548;2022-10-31T13:36:47;8.27;;;3.67;;
72864;SDS011;61000;48.120;11.548;2022-10-31T13:39:21;11.75;;;4.10;;
72864;SDS011;61000;48.120;11.548;2022-10-31T13:41:57;9.93;;;4.00;;
72864;SDS011;61000;48.120;11.548;2022-10-31T13:44:29;14.23;;;3.67;;
72864;SDS011;61000;48.120;11.548;2022-10-31T13:46:57;7.93;;;4.50;;
72864;SDS011;61000;48.120;11.548;2022-10-31T13:49:26;10.45;;;3.90;;
72864;SDS011;61000;48.120;11.548;2022-10-31T13:52:16;13.70;;;4.38;;
72864;SDS011;61000;48.120;11.548;2022-10-31T13:54:49;12.07;;;4.25;;
72864;SDS011;61000;48.120;11.548;2022-10-31T13:57:22;12.98;;;4.15;;
72864;SDS011;61000;48.120;11.548;2022-10-31T13:59:58;10.07;;;4.32;;
72864;SDS011;61000;48.120;11.548;2022-10-31T14:02:43;13.68;;;4.47;;
72864;SDS011;61000;48.120;11.548;2022-10-31T14:05:19;8.50;;;4.15;;
72864;SDS011;61000;48.120;11.548;2022-10-31T14:07:49;10.65;;;4.38;;
72864;SDS011;61000;48.120;11.548;2022-10-31T14:10:20;12.82;;;4.47;;
72864;SDS011;61000;48.120;11.548;2022-10-31T14:12:50;9.48;;;3.97;;
72864;SDS011;61000;48.120;11.548;2022-10-31T14:15:19;8.57;;;4.57;;
72864;SDS011;61000;48.120;11.548;2022-10-31T14:17:49;7.00;;;3.92;;
72864;SDS011;61000;48.120;11.548;2022-10-31T14:20:22;13.80;;;4.22;;
72864;SDS011;61000;48.120;11.548;2022-10-31T14:23:10;13.48;;;4.20;;
72864;SDS011;61000;48.120;11.548;2022-10-31T14:25:39;13.23;;;4.43;;
72864;SDS011;61000;48.120;11.548;2022-10-31T14:28:18;10.80;;;4.63;;
72864;SDS011;61000;48.120;11.548;2022-10-31T14:30:50;14.57;;;5.15;;
72864;SDS011;61000;48.120;11.548;2022-10-31T14:33:20;17.77;;;4.47;;
72864;SDS011;61000;48.120;11.548;2022-10-31T14:35:51;10.80;;;4.50;;
72864;SDS011;61000;48.120;11.548;2022-10-31T14:38:29;7.90;;;3.95;;
72864;SDS011;61000;48.120;11.548;2022-10-31T14:44:19;11.85;;;5.13;;
72864;SDS011;61000;48.120;11.548;2022-10-31T14:47:09;18.00;;;6.15;;
72864;SDS011;61000;48.120;11.548;2022-10-31T14:49:50;21.15;;;4.80;;
72864;SDS011;61000;48.120;11.548;2022-10-31T14:52:42;10.00;;;4.90;;
72864;SDS011;61000;48.120;11.548;2022-10-31T14:55:14;15.55;;;4.78;;
72864;SDS011;61000;48.120;11.548;2022-10-31T14:57:47;15.00;;;4.50;;
72864;SDS011;61000;48.120;11.548;2022-10-31T15:00:18;11.32;;;4.78;;
72864;SDS011;61000;48.120;11.548;2022-10-31T15:02:48;12.48;;;4.88;;
72864;SDS011;61000;48.120;11.548;2022-10-31T15:05:23;10.10;;;4.72;;
72864;SDS011;61000;48.120;11.548;2022-10-31T15:07:53;11.90;;;5.38;;
72864;SDS011;61000;48.120;11.548;2022-10-31T15:10:22;10.55;;;5.05;;
72864;SDS011;61000;48.120;11.548;2022-10-31T15:12:51;8.40;;;4.45;;
72864;SDS011;61000;48.120;11.548;2022-10-31T15:15:19;13.30;;;4.80;;
72864;SDS011;61000;48.120;11.548;2022-10-31T15:17:48;14.05;;;4.70;;
72864;SDS011;61000;48.120;11.548;2022-10-31T15:20:19;12.18;;;5.47;;
72864;SDS011;61000;48.120;11.548;2022-10-31T15:22:49;17.45;;;5.03;;